createdAt,value
2019-05-17T00:03:53.313Z,37.50
2019-05-17T00:08:56.432Z,37.37
2019-05-17T00:13:58.208Z,36.23
2019-05-17T00:19:00.206Z,35.60
2019-05-17T00:24:01.771Z,35.23
2019-05-17T00:29:03.359Z,35.70
2019-05-17T00:34:07.134Z,35.53
2019-05-17T00:39:08.412Z,35.47
2019-05-17T00:44:10.562Z,34.93
2019-05-17T00:49:12.162Z,35.00
2019-05-17T00:54:13.627Z,35.10
2019-05-17T00:59:17.314Z,34.07
2019-05-17T01:04:19.019Z,34.87
2019-05-17T01:09:21.282Z,34.50
2019-05-17T01:14:22.903Z,34.37
2019-05-17T01:19:26.873Z,34.70
2019-05-17T01:24:28.165Z,34.80
2019-05-17T01:29:29.738Z,34.20
2019-05-17T01:34:31.339Z,34.27
2019-05-17T01:39:33.626Z,32.70
2019-05-17T01:44:36.750Z,32.70
2019-05-17T01:49:38.717Z,33.47
2019-05-17T01:54:40.157Z,31.70
2019-05-17T01:59:41.751Z,32.70
2019-05-17T02:04:43.379Z,32.97
2019-05-17T02:09:47.548Z,31.87
2019-05-17T02:14:48.476Z,31.10
2019-05-17T02:19:50.088Z,30.60
2019-05-17T02:24:52.045Z,31.13
2019-05-17T02:29:53.969Z,30.77
2019-05-17T02:34:55.405Z,29.87
2019-05-17T02:40:03.023Z,29.33
2019-05-17T02:45:03.264Z,29.70
2019-05-17T02:50:06.046Z,29.13
2019-05-17T02:55:08.086Z,30.43
2019-05-17T03:00:13.000Z,29.03
2019-05-17T03:05:13.545Z,29.03
2019-05-17T03:10:23.910Z,29.53
2019-05-17T03:15:18.606Z,29.47
2019-05-17T03:20:22.972Z,28.57
2019-05-17T03:25:24.135Z,28.60
2019-05-17T03:30:26.360Z,28.10
2019-05-17T03:35:28.826Z,28.03
2019-05-17T03:41:01.195Z,27.73
2019-05-17T03:45:34.479Z,26.83
2019-05-17T03:50:36.074Z,26.73
2019-05-17T03:55:38.013Z,27.10
2019-05-17T04:00:42.611Z,27.77
2019-05-17T04:05:43.267Z,27.47
2019-05-17T04:10:44.964Z,26.20
2019-05-17T04:15:46.390Z,29.00
2019-05-17T04:20:48.127Z,27.03
2019-05-17T04:25:52.401Z,25.43
2019-05-17T04:30:53.231Z,27.60
2019-05-17T04:35:54.841Z,27.57
2019-05-17T04:40:56.502Z,27.33
2019-05-17T04:45:58.035Z,27.60
2019-05-17T04:51:02.541Z,27.23
2019-05-17T04:56:03.723Z,26.20
2019-05-17T05:01:05.429Z,27.37
2019-05-17T05:06:07.039Z,26.97
2019-05-17T05:11:09.072Z,25.67
2019-05-17T05:16:13.258Z,26.43
2019-05-17T05:21:13.950Z,27.27
2019-05-17T05:26:15.589Z,29.33
2019-05-17T05:31:17.083Z,29.47
2019-05-17T05:36:18.737Z,28.80
2019-05-17T05:41:22.443Z,27.30
2019-05-17T05:46:23.757Z,31.30
2019-05-17T05:51:25.208Z,28.67
2019-05-17T05:56:26.728Z,27.33
2019-05-17T06:01:28.267Z,33.80
2019-05-17T06:06:32.053Z,26.80
2019-05-17T06:11:33.398Z,27.77
2019-05-17T06:16:34.865Z,29.27
2019-05-17T06:21:36.516Z,29.70
2019-05-17T06:26:38.501Z,29.13
2019-05-17T06:31:40.147Z,28.77
2019-05-17T06:36:42.296Z,29.60
2019-05-17T06:41:44.083Z,28.40
2019-05-17T06:46:45.587Z,27.10
2019-05-17T06:51:47.131Z,26.00
2019-05-17T06:56:48.582Z,28.77
2019-05-17T07:01:50.431Z,27.90
2019-05-17T07:07:10.944Z,25.90
2019-05-17T07:12:12.623Z,25.30
2019-05-17T07:17:14.277Z,25.27
2019-05-17T07:22:15.837Z,26.23
2019-05-17T07:27:19.361Z,24.10
2019-05-17T07:32:21.574Z,25.00
2019-05-17T07:37:23.127Z,25.00
2019-05-17T07:42:24.749Z,23.07
2019-05-17T07:47:26.370Z,23.37
2019-05-17T07:52:29.834Z,23.07
2019-05-17T07:57:31.529Z,23.23
2019-05-17T08:02:33.069Z,24.83
2019-05-17T08:07:40.666Z,25.73
2019-05-17T08:12:44.322Z,23.63
2019-05-17T08:17:50.269Z,26.33
2019-05-17T08:22:51.876Z,24.87
2019-05-17T08:27:53.369Z,25.40
2019-05-17T08:32:54.980Z,23.00
2019-05-17T08:38:00.515Z,22.83
2019-05-17T08:43:02.689Z,23.00
2019-05-17T08:48:04.219Z,21.70
2019-05-17T08:53:05.731Z,22.20
2019-05-17T08:58:09.993Z,23.20
2019-05-17T09:03:11.014Z,21.30
2019-05-17T09:08:12.685Z,22.13
2019-05-17T09:13:14.843Z,22.00
2019-05-17T09:18:16.415Z,22.37
2019-05-17T09:23:19.748Z,21.57
2019-05-17T09:28:21.706Z,24.03
2019-05-17T09:33:23.705Z,22.57
2019-05-17T09:38:26.791Z,23.40
2019-05-17T09:43:29.504Z,23.73
2019-05-17T09:48:31.223Z,23.50
2019-05-17T09:53:32.655Z,24.80
2019-05-17T09:58:34.509Z,24.10
2019-05-17T10:03:36.271Z,25.07
2019-05-17T10:08:39.447Z,27.07
2019-05-17T10:13:40.955Z,26.03
2019-05-17T10:24:20.068Z,26.90
2019-05-17T10:29:22.989Z,26.47
2019-05-17T10:34:24.566Z,27.40
2019-05-17T10:39:26.092Z,33.03
2019-05-17T10:44:43.128Z,31.90
2019-05-17T10:49:33.653Z,25.40
2019-05-17T10:54:35.097Z,27.80
2019-05-17T10:59:55.214Z,26.33
2019-05-17T11:05:15.533Z,29.50
2019-05-17T11:10:35.590Z,25.07
2019-05-17T11:15:55.925Z,24.17
2019-05-17T11:21:15.872Z,24.80
2019-05-17T11:26:36.846Z,22.77
2019-05-17T11:31:56.753Z,21.63
2019-05-17T11:43:15.164Z,22.20
2019-05-17T11:48:35.045Z,20.50
2019-05-17T11:53:55.309Z,22.87
2019-05-17T11:59:15.289Z,22.07
2019-05-17T12:04:35.544Z,20.03
2019-05-17T12:09:55.499Z,20.13
2019-05-17T12:15:15.775Z,18.63
2019-05-17T12:20:35.841Z,18.23
2019-05-17T12:31:54.007Z,17.47
2019-05-17T12:37:14.232Z,17.90
2019-05-17T12:42:34.213Z,17.80
2019-05-17T12:47:54.241Z,18.53
2019-05-17T12:53:14.265Z,17.17
2019-05-17T12:58:34.318Z,18.20
2019-05-17T13:03:54.331Z,17.80
2019-05-17T13:09:14.521Z,17.50
2019-05-17T13:14:34.214Z,19.17
2019-05-17T13:19:54.445Z,17.93
2019-05-17T13:25:14.365Z,17.30
2019-05-17T13:30:34.533Z,18.90
2019-05-17T13:35:54.826Z,20.73
2019-05-17T13:41:15.074Z,20.50
2019-05-17T13:46:35.031Z,19.20
2019-05-17T13:51:55.407Z,18.93
2019-05-17T13:57:15.571Z,20.07
2019-05-17T14:02:35.803Z,19.90
2019-05-17T14:07:55.846Z,21.73
2019-05-17T14:13:16.176Z,24.60
2019-05-17T14:18:36.168Z,25.00
2019-05-17T14:23:56.354Z,22.80
2019-05-17T14:29:07.812Z,27.20
2019-05-17T14:34:10.079Z,24.97
2019-05-17T14:39:11.533Z,24.70
2019-05-17T14:44:13.968Z,23.70
2019-05-17T14:49:15.472Z,25.17
2019-05-17T14:54:17.332Z,25.60
2019-05-17T14:59:18.870Z,24.83
2019-05-17T15:04:20.674Z,24.90
2019-05-17T15:09:22.350Z,26.47
2019-05-17T15:14:23.861Z,25.40
2019-05-17T15:19:26.113Z,25.20
2019-05-17T15:24:28.261Z,24.83
2019-05-17T15:29:29.803Z,24.70
2019-05-17T15:34:31.556Z,26.10
2019-05-17T15:39:33.301Z,26.50
2019-05-17T15:44:37.395Z,26.57
2019-05-17T15:49:39.099Z,27.67
2019-05-17T15:54:41.385Z,28.77
2019-05-17T15:59:42.941Z,28.30
2019-05-17T16:04:44.472Z,27.93
2019-05-17T16:09:49.490Z,28.03
2019-05-17T16:14:51.713Z,28.13
2019-05-17T16:19:53.325Z,27.90
2019-05-17T16:24:55.062Z,27.63
2019-05-17T16:29:56.603Z,27.87
2019-05-17T16:34:58.251Z,27.60
2019-05-17T16:39:59.733Z,28.00
2019-05-17T16:45:01.592Z,29.93
2019-05-17T16:50:07.674Z,29.20
2019-05-17T16:55:09.521Z,29.13
2019-05-17T17:00:25.999Z,28.57
2019-05-17T17:05:27.621Z,29.10
2019-05-17T17:10:29.237Z,28.43
2019-05-17T17:15:30.786Z,29.10
2019-05-17T17:20:32.250Z,28.80
2019-05-17T17:25:33.923Z,30.37
2019-05-17T17:30:35.558Z,29.33
2019-05-17T17:35:37.190Z,30.53
2019-05-17T17:40:49.625Z,30.10
2019-05-17T17:45:53.156Z,32.83
2019-05-17T17:50:54.964Z,32.57
2019-05-17T17:55:57.236Z,30.10
2019-05-17T18:00:59.140Z,33.13
2019-05-17T18:06:00.835Z,32.33
2019-05-17T18:11:02.448Z,35.33
2019-05-17T18:16:04.565Z,36.33
2019-05-17T18:21:06.103Z,36.03
2019-05-17T18:26:07.784Z,33.17
2019-05-17T18:31:09.316Z,35.30
2019-05-17T18:36:10.994Z,34.50
2019-05-17T18:41:12.522Z,36.27
2019-05-17T18:46:14.581Z,36.70
2019-05-17T18:51:16.223Z,34.47
2019-05-17T18:56:20.008Z,39.30
2019-05-17T19:01:21.521Z,36.90
2019-05-17T19:06:23.057Z,35.97
2019-05-17T19:11:24.619Z,38.40
2019-05-17T19:16:26.263Z,35.00
2019-05-17T19:21:27.797Z,35.20
2019-05-17T19:26:29.251Z,34.10
2019-05-17T19:31:30.887Z,35.70
2019-05-17T19:36:32.565Z,35.00
2019-05-17T19:41:34.009Z,36.60
2019-05-17T19:46:35.743Z,36.03
2019-05-17T19:51:37.421Z,36.63
2019-05-17T19:56:39.397Z,35.90
2019-05-17T20:01:41.049Z,35.30
2019-05-17T20:06:42.592Z,38.40
2019-05-17T20:11:44.207Z,34.63
2019-05-17T20:16:45.878Z,34.87
2019-05-17T20:21:47.532Z,36.30
2019-05-17T20:26:49.051Z,36.80
2019-05-17T20:31:51.205Z,36.23
2019-05-17T20:36:52.883Z,36.10
2019-05-17T20:41:57.431Z,37.27
2019-05-17T20:46:58.179Z,37.17
2019-05-17T20:51:59.721Z,37.57
2019-05-17T20:57:01.203Z,37.67
2019-05-17T21:02:03.293Z,38.43
2019-05-17T21:07:04.948Z,36.80
2019-05-17T21:12:06.602Z,37.13
2019-05-17T21:17:08.695Z,38.80
2019-05-17T21:22:10.317Z,37.60
2019-05-17T21:27:11.956Z,39.80
2019-05-17T21:32:13.616Z,39.40
2019-05-17T21:37:15.165Z,38.47
2019-05-17T21:42:16.826Z,39.43
2019-05-17T21:47:21.273Z,37.30
2019-05-17T21:52:22.900Z,38.00
2019-05-17T21:57:31.003Z,42.50
2019-05-17T22:02:33.308Z,36.17
2019-05-17T22:07:34.936Z,36.37
2019-05-17T22:12:36.575Z,39.57
2019-05-17T22:17:38.230Z,38.00
2019-05-17T22:22:39.757Z,38.77
2019-05-17T22:27:41.767Z,36.10
2019-05-17T22:32:43.299Z,34.47
2019-05-17T22:37:44.826Z,41.20
2019-05-17T22:42:46.321Z,40.63
2019-05-17T22:47:48.277Z,36.63
2019-05-17T22:52:52.174Z,36.17
2019-05-17T22:57:54.128Z,37.63
2019-05-17T23:02:55.686Z,35.90
2019-05-17T23:07:57.241Z,39.80
2019-05-17T23:12:58.889Z,35.97
2019-05-17T23:18:00.528Z,36.30
2019-05-17T23:23:02.195Z,35.57
2019-05-17T23:28:03.724Z,32.03
2019-05-17T23:33:05.464Z,31.40
2019-05-17T23:38:07.009Z,36.30
2019-05-17T23:43:08.631Z,33.20
2019-05-17T23:48:10.622Z,31.47
2019-05-17T23:53:14.129Z,34.90
2019-05-17T23:58:15.806Z,35.93
